Time;durP1;ratioP1;P1;durP2;ratioP2;P2;SDS_P1;SDS_P2;PMS_P1;PMS_P2;Temp;Humidity;BMP_temperature;BMP_pressure;BME280_temperature;BME280_humidity;BME280_pressure;Samples;Min_cycle;Max_cycle;Signal;HPM_P1;HPM_P2
2023/04/12 00:02:03;;;;;;;16.52;2.15;;;11.90;99.10;;;;;;4962658;28;20441;-82
2023/04/12 00:04:33;;;;;;;7.57;1.55;;;11.90;99.10;;;;;;4980132;28;20053;-82
2023/04/12 00:06:59;;;;;;;7.60;1.52;;;11.90;99.30;;;;;;4961858;28;20038;-83
2023/04/12 00:09:29;;;;;;;9.30;2.05;;;11.90;99.00;;;;;;4979653;28;20022;-81
2023/04/12 00:11:58;;;;;;;8.07;1.33;;;12.00;99.10;;;;;;4980314;28;20022;-85
2023/04/12 00:14:26;;;;;;;6.82;1.48;;;11.90;99.30;;;;;;4980654;28;20050;-82
2023/04/12 00:16:52;;;;;;;14.15;1.60;;;11.80;99.90;;;;;;4960754;28;20092;-82
2023/04/12 00:19:17;;;;;;;5.65;1.67;;;11.80;99.90;;;;;;4963085;28;20441;-83
2023/04/12 00:21:44;;;;;;;6.93;1.65;;;11.70;99.90;;;;;;4979974;28;20097;-83
2023/04/12 00:24:09;;;;;;;7.32;1.10;;;11.60;99.90;;;;;;4980462;28;20085;-85
2023/04/12 00:26:40;;;;;;;6.15;1.20;;;11.50;99.90;;;;;;4977082;28;20031;-83
2023/04/12 00:29:06;;;;;;;11.20;1.33;;;11.30;99.90;;;;;;4962128;28;20497;-82
2023/04/12 00:31:31;;;;;;;10.15;1.85;;;11.20;99.90;;;;;;4980987;28;20026;-82
2023/04/12 00:33:57;;;;;;;9.43;1.75;;;11.20;99.90;;;;;;4963230;28;20019;-82
2023/04/12 00:36:23;;;;;;;10.75;1.40;;;11.30;99.90;;;;;;4981198;28;20445;-82
2023/04/12 00:38:48;;;;;;;7.28;1.75;;;11.10;99.90;;;;;;4984593;28;20022;-85
2023/04/12 00:41:14;;;;;;;5.85;1.38;;;11.10;99.90;;;;;;4982564;28;20631;-81
2023/04/12 00:43:43;;;;;;;8.00;1.85;;;11.10;99.90;;;;;;4963482;28;20054;-84
2023/04/12 00:46:11;;;;;;;9.02;1.70;;;11.20;99.90;;;;;;4983224;28;20517;-82
2023/04/12 00:48:38;;;;;;;8.73;1.33;;;11.10;99.90;;;;;;4966920;28;20151;-82
2023/04/12 00:51:06;;;;;;;7.40;1.30;;;11.00;99.90;;;;;;4965748;28;20030;-82
2023/04/12 00:53:32;;;;;;;5.28;1.48;;;11.10;99.90;;;;;;4972501;28;20022;-81
2023/04/12 00:55:58;;;;;;;8.10;1.95;;;11.10;99.90;;;;;;4959950;28;20030;-83
2023/04/12 00:58:24;;;;;;;8.18;1.73;;;11.10;99.90;;;;;;4982357;28;20603;-82
2023/04/12 01:00:51;;;;;;;10.07;1.45;;;11.00;99.90;;;;;;4966086;28;20026;-82
2023/04/12 01:03:26;;;;;;;6.25;1.55;;;11.00;99.90;;;;;;4981758;28;20026;-82
2023/04/12 01:06:19;;;;;;;11.93;1.48;;;11.00;99.90;;;;;;4981626;28;20046;-82
2023/04/12 01:08:51;;;;;;;4.80;1.00;;;11.00;99.90;;;;;;4981999;28;20042;-82
2023/04/12 01:11:30;;;;;;;4.75;1.50;;;11.00;99.90;;;;;;4960972;28;20092;-82
2023/04/12 01:14:27;;;;;;;7.85;1.40;;;10.90;99.90;;;;;;4957447;28;20037;-82
2023/04/12 01:17:03;;;;;;;5.22;1.50;;;10.90;99.90;;;;;;4958589;28;20450;-82
2023/04/12 01:19:52;;;;;;;8.07;1.33;;;10.80;99.90;;;;;;4963405;28;20031;-80
2023/04/12 01:22:36;;;;;;;5.72;1.30;;;10.70;99.90;;;;;;4983016;28;20582;-81
2023/04/12 01:25:28;;;;;;;5.78;1.38;;;10.70;99.90;;;;;;4980710;28;20068;-82
2023/04/12 01:28:01;;;;;;;9.32;1.42;;;10.70;99.90;;;;;;4980441;28;20258;-82
2023/04/12 01:30:28;;;;;;;8.90;1.20;;;10.80;99.90;;;;;;4982556;28;20033;-87
2023/04/12 01:32:55;;;;;;;5.78;1.40;;;10.70;99.90;;;;;;4983681;28;20030;-85
2023/04/12 01:35:25;;;;;;;13.95;1.77;;;10.70;99.90;;;;;;4981874;28;20030;-81
2023/04/12 01:37:51;;;;;;;5.50;1.65;;;10.70;99.90;;;;;;4980561;28;20026;-81
2023/04/12 01:40:18;;;;;;;7.82;1.65;;;10.60;99.90;;;;;;4980210;28;20367;-83
2023/04/12 01:42:43;;;;;;;9.00;1.60;;;10.70;99.90;;;;;;4980936;28;20027;-84
2023/04/12 01:45:10;;;;;;;5.70;1.50;;;10.60;99.90;;;;;;4983759;28;20018;-82
2023/04/12 01:47:36;;;;;;;8.75;2.35;;;10.60;99.90;;;;;;4968455;28;20113;-84
2023/04/12 01:50:26;;;;;;;7.18;1.88;;;10.50;99.90;;;;;;4984016;28;20117;-83
2023/04/12 01:53:02;;;;;;;6.78;1.67;;;10.50;99.90;;;;;;4983229;28;20025;-83
2023/04/12 01:55:30;;;;;;;9.77;1.70;;;10.50;99.90;;;;;;4965304;28;20037;-82
2023/04/12 01:57:57;;;;;;;10.85;1.70;;;10.50;99.90;;;;;;4981050;28;20018;-82
2023/04/12 02:00:26;;;;;;;11.20;2.00;;;10.50;99.90;;;;;;4981799;28;20033;-83
2023/04/12 02:02:51;;;;;;;8.55;2.28;;;10.40;99.90;;;;;;4964617;28;20128;-83
2023/04/12 02:05:18;;;;;;;8.75;2.80;;;10.40;99.90;;;;;;4965074;28;20026;-83
2023/04/12 02:07:46;;;;;;;11.38;2.75;;;10.40;99.90;;;;;;4978236;28;20037;-84
2023/04/12 02:10:14;;;;;;;11.85;2.72;;;10.40;99.90;;;;;;4983788;28;20014;-82
2023/04/12 02:12:41;;;;;;;9.73;2.67;;;10.40;99.90;;;;;;4968876;28;20027;-82
2023/04/12 02:15:07;;;;;;;7.75;2.33;;;10.30;99.90;;;;;;4975712;28;20023;-83
2023/04/12 02:17:36;;;;;;;11.27;1.92;;;10.30;99.90;;;;;;5000019;28;20046;-82
2023/04/12 02:20:06;;;;;;;14.68;3.00;;;10.30;99.90;;;;;;4995922;28;20145;-84
2023/04/12 02:22:32;;;;;;;7.30;2.38;;;10.20;99.90;;;;;;4970322;28;20478;-82
2023/04/12 02:24:58;;;;;;;6.88;1.55;;;10.20;99.90;;;;;;4967903;28;20030;-82
2023/04/12 02:27:25;;;;;;;6.88;1.40;;;10.00;99.90;;;;;;4965256;28;20489;-82
2023/04/12 02:29:50;;;;;;;11.48;1.77;;;10.00;99.90;;;;;;4964795;28;20023;-83
2023/04/12 02:32:16;;;;;;;9.00;2.35;;;10.10;99.90;;;;;;4983536;28;20495;-82
2023/04/12 02:34:42;;;;;;;9.13;2.15;;;10.00;99.90;;;;;;4963825;28;20042;-80
2023/04/12 02:37:12;;;;;;;11.93;2.42;;;9.90;99.90;;;;;;4981464;28;20121;-82
2023/04/12 02:39:39;;;;;;;7.30;2.00;;;9.90;99.90;;;;;;4962804;28;21137;-83
2023/04/12 02:42:06;;;;;;;4.45;2.20;;;9.90;99.90;;;;;;4965791;28;20026;-83
2023/04/12 02:44:31;;;;;;;13.27;4.13;;;9.90;99.90;;;;;;4956487;28;20073;-85
2023/04/12 02:46:59;;;;;;;9.35;2.90;;;9.90;99.90;;;;;;4960032;28;20039;-83
2023/04/12 02:49:25;;;;;;;11.68;3.25;;;9.90;99.90;;;;;;4965433;28;20030;-81
2023/04/12 02:51:50;;;;;;;12.35;3.45;;;9.90;99.90;;;;;;4981605;28;20069;-83
2023/04/12 02:54:16;;;;;;;13.60;3.03;;;9.90;99.90;;;;;;4965612;28;20074;-84
2023/04/12 02:56:42;;;;;;;9.00;2.95;;;9.90;99.90;;;;;;4982041;28;20033;-83
2023/04/12 02:59:08;;;;;;;10.90;2.80;;;9.90;99.90;;;;;;4970517;28;20114;-85
2023/04/12 03:01:37;;;;;;;10.75;3.20;;;9.90;99.90;;;;;;4965215;28;20117;-83
2023/04/12 03:04:03;;;;;;;9.88;2.67;;;9.80;99.90;;;;;;4979120;28;20198;-84
2023/04/12 03:06:30;;;;;;;14.95;2.92;;;9.80;99.90;;;;;;4958370;28;20129;-83
2023/04/12 03:08:56;;;;;;;9.77;3.05;;;9.80;99.90;;;;;;4969028;28;20026;-80
2023/04/12 03:11:22;;;;;;;9.43;2.30;;;9.70;99.90;;;;;;4965341;28;20041;-82
2023/04/12 03:13:48;;;;;;;5.93;2.47;;;9.70;99.90;;;;;;4964635;28;20557;-83
2023/04/12 03:16:22;;;;;;;8.63;2.40;;;9.70;99.90;;;;;;4967556;28;20033;-83
2023/04/12 03:18:49;;;;;;;6.88;2.25;;;9.70;99.90;;;;;;4970702;28;20466;-82
2023/04/12 03:21:15;;;;;;;9.07;2.13;;;9.70;99.90;;;;;;4980925;28;20018;-83
2023/04/12 03:23:41;;;;;;;8.13;2.53;;;9.70;99.90;;;;;;4972063;28;20045;-80
2023/04/12 03:26:07;;;;;;;9.25;2.00;;;9.70;99.90;;;;;;4981670;28;20045;-82
2023/04/12 03:28:33;;;;;;;4.35;1.77;;;9.70;99.90;;;;;;4963767;28;20117;-81
2023/04/12 03:31:01;;;;;;;11.65;2.42;;;9.70;99.90;;;;;;4980627;28;20034;-83
2023/04/12 03:33:27;;;;;;;7.10;2.35;;;9.70;99.90;;;;;;4981046;28;20017;-83
2023/04/12 03:35:53;;;;;;;6.28;2.00;;;9.80;99.90;;;;;;4962681;28;20030;-82
2023/04/12 03:38:18;;;;;;;3.95;2.20;;;9.70;99.90;;;;;;4971110;28;20030;-83
2023/04/12 03:40:49;;;;;;;7.30;2.00;;;9.70;99.90;;;;;;4969034;28;20165;-82
2023/04/12 03:43:16;;;;;;;14.52;2.47;;;9.80;99.90;;;;;;4972509;28;20026;-84
2023/04/12 03:45:42;;;;;;;4.22;1.90;;;9.80;99.90;;;;;;4962389;28;20034;-83
2023/04/12 03:48:10;;;;;;;4.60;1.85;;;9.80;99.90;;;;;;4972805;28;20018;-86
2023/04/12 03:50:43;;;;;;;3.22;1.23;;;9.80;99.90;;;;;;4964076;28;20034;-85
2023/04/12 03:53:09;;;;;;;2.33;1.50;;;9.90;99.90;;;;;;4981407;28;20050;-82
2023/04/12 03:55:36;;;;;;;10.80;2.28;;;9.90;99.90;;;;;;4974923;28;20612;-85
2023/04/12 03:58:02;;;;;;;5.13;1.65;;;9.80;99.90;;;;;;4964445;28;20031;-83
2023/04/12 04:00:30;;;;;;;13.55;2.17;;;9.80;99.90;;;;;;4963870;28;20022;-86
2023/04/12 04:03:02;;;;;;;6.03;1.80;;;9.90;99.90;;;;;;4982101;28;20030;-82
2023/04/12 04:05:31;;;;;;;5.03;2.03;;;9.90;99.90;;;;;;4980328;28;20069;-83
2023/04/12 04:08:01;;;;;;;7.72;2.78;;;9.80;99.90;;;;;;4962938;28;20177;-84
2023/04/12 04:10:30;;;;;;;5.43;2.45;;;9.90;99.90;;;;;;4980879;28;20077;-84
2023/04/12 04:12:56;;;;;;;6.00;1.70;;;9.90;99.90;;;;;;4984020;28;20026;-85
2023/04/12 04:15:24;;;;;;;7.72;1.98;;;9.90;99.90;;;;;;4968652;28;20080;-85
2023/04/12 04:17:50;;;;;;;8.05;1.98;;;9.90;99.90;;;;;;4968526;28;20030;-84
2023/04/12 04:20:17;;;;;;;4.70;1.90;;;9.90;99.90;;;;;;4976437;28;20023;-84
2023/04/12 04:22:46;;;;;;;7.60;2.20;;;10.00;99.90;;;;;;4966784;28;20367;-83
2023/04/12 04:25:13;;;;;;;5.28;1.90;;;10.00;99.90;;;;;;4984907;28;20025;-84
2023/04/12 04:27:45;;;;;;;6.20;1.92;;;10.00;99.90;;;;;;4969199;28;20527;-83
2023/04/12 04:30:11;;;;;;;8.70;1.75;;;10.00;99.90;;;;;;4964885;28;20045;-84
2023/04/12 04:32:41;;;;;;;9.73;1.77;;;10.10;99.90;;;;;;4972338;28;20015;-84
2023/04/12 04:35:07;;;;;;;3.50;1.70;;;10.10;99.90;;;;;;4985862;28;20034;-84
2023/04/12 04:37:36;;;;;;;9.05;1.38;;;10.10;99.90;;;;;;4966974;28;20019;-83
2023/04/12 04:40:07;;;;;;;10.60;2.03;;;10.00;99.90;;;;;;4986384;28;20154;-84
2023/04/12 04:42:32;;;;;;;9.65;1.98;;;9.80;99.90;;;;;;4965771;28;20458;-84
2023/04/12 04:45:11;;;;;;;6.13;2.15;;;9.50;99.90;;;;;;4969728;28;20030;-82
2023/04/12 04:47:39;;;;;;;5.53;2.15;;;9.30;99.90;;;;;;4967813;28;20349;-82
2023/04/12 04:50:06;;;;;;;9.57;1.83;;;9.10;99.90;;;;;;4967394;28;20022;-84
2023/04/12 04:52:36;;;;;;;10.48;2.28;;;9.00;99.90;;;;;;4967547;28;20074;-84
2023/04/12 04:55:02;;;;;;;7.70;2.05;;;8.90;99.90;;;;;;4983453;28;20117;-80
2023/04/12 04:57:27;;;;;;;8.82;2.00;;;8.90;99.90;;;;;;4970651;28;20109;-82
2023/04/12 04:59:53;;;;;;;3.80;1.48;;;8.80;99.90;;;;;;4985996;28;20065;-81
2023/04/12 05:02:20;;;;;;;3.15;1.67;;;8.80;99.90;;;;;;4980818;28;20057;-83
2023/04/12 05:04:45;;;;;;;4.72;2.15;;;8.80;99.90;;;;;;4967288;28;20030;-83
2023/04/12 05:07:13;;;;;;;6.28;1.58;;;8.80;99.90;;;;;;4982441;28;20050;-84
2023/04/12 05:09:38;;;;;;;4.25;1.40;;;8.80;99.90;;;;;;4973523;28;20027;-81
2023/04/12 05:12:04;;;;;;;5.03;2.10;;;8.80;99.90;;;;;;4966405;28;20153;-83
2023/04/12 05:14:30;;;;;;;2.13;1.55;;;8.80;99.90;;;;;;4964874;28;20026;-84
2023/04/12 05:16:56;;;;;;;12.18;2.05;;;8.80;99.90;;;;;;4987173;28;20030;-81
2023/04/12 05:19:21;;;;;;;2.35;1.35;;;8.80;99.90;;;;;;4975439;28;20026;-85
2023/04/12 05:21:47;;;;;;;5.53;1.80;;;8.80;99.90;;;;;;4967793;28;20026;-82
2023/04/12 05:24:12;;;;;;;6.50;2.03;;;8.70;99.90;;;;;;4968127;28;20027;-83
2023/04/12 05:26:38;;;;;;;3.55;2.00;;;8.70;99.90;;;;;;4966100;28;20141;-83
2023/04/12 05:29:05;;;;;;;5.50;1.85;;;8.80;99.90;;;;;;4972154;28;20030;-83
2023/04/12 05:31:31;;;;;;;7.38;1.80;;;8.80;99.90;;;;;;4991668;28;20049;-82
2023/04/12 05:33:59;;;;;;;10.20;2.38;;;8.80;99.90;;;;;;4977683;28;20279;-81
2023/04/12 05:36:27;;;;;;;8.60;2.00;;;8.80;99.90;;;;;;4965065;28;20029;-83
2023/04/12 05:38:52;;;;;;;4.22;1.98;;;8.70;99.90;;;;;;4971010;28;20030;-82
2023/04/12 05:41:18;;;;;;;6.10;2.35;;;8.80;99.90;;;;;;4967983;28;20026;-83
2023/04/12 05:43:43;;;;;;;2.88;1.80;;;8.80;99.90;;;;;;4980836;28;20954;-87
2023/04/12 05:46:11;;;;;;;5.38;2.15;;;8.80;99.90;;;;;;4984783;28;20081;-79
2023/04/12 05:48:37;;;;;;;6.45;2.05;;;8.80;99.90;;;;;;4964435;28;20023;-81
2023/04/12 05:51:04;;;;;;;7.40;2.42;;;8.80;99.90;;;;;;4975160;28;20030;-81
2023/04/12 05:53:31;;;;;;;9.50;2.55;;;8.80;99.90;;;;;;4992464;28;20049;-84
2023/04/12 05:55:57;;;;;;;6.45;2.20;;;8.90;99.90;;;;;;4986783;28;20109;-83
2023/04/12 05:58:23;;;;;;;5.60;2.30;;;8.90;99.90;;;;;;4985059;28;20030;-84
2023/04/12 06:00:53;;;;;;;5.20;1.90;;;8.90;99.90;;;;;;4965039;28;20031;-87
2023/04/12 06:03:18;;;;;;;8.93;2.47;;;9.00;99.90;;;;;;4967002;28;20035;-82
2023/04/12 06:05:44;;;;;;;10.00;2.60;;;8.90;99.90;;;;;;4983416;28;20049;-80
2023/04/12 06:08:11;;;;;;;5.97;2.13;;;8.90;99.90;;;;;;4983741;28;20135;-84
2023/04/12 06:10:37;;;;;;;6.35;2.53;;;9.00;99.90;;;;;;4984523;28;20033;-81
2023/04/12 06:13:02;;;;;;;7.38;2.80;;;9.00;99.90;;;;;;4969977;28;20403;-86
2023/04/12 06:15:30;;;;;;;6.93;2.15;;;9.00;99.90;;;;;;4985344;28;20138;-86
2023/04/12 06:17:57;;;;;;;11.02;2.50;;;9.00;99.90;;;;;;4966515;28;20716;-84
2023/04/12 06:20:23;;;;;;;6.32;2.72;;;9.10;99.90;;;;;;4983940;28;20064;-84
2023/04/12 06:22:48;;;;;;;10.20;2.97;;;9.10;99.90;;;;;;4963782;28;20058;-85
2023/04/12 06:25:16;;;;;;;6.30;2.65;;;9.10;99.90;;;;;;4965130;28;20030;-83
2023/04/12 06:27:41;;;;;;;8.77;2.95;;;9.10;99.90;;;;;;4980161;28;20038;-83
2023/04/12 06:30:10;;;;;;;6.75;2.60;;;9.20;99.90;;;;;;4981737;28;20255;-82
2023/04/12 06:32:37;;;;;;;4.35;2.78;;;9.10;99.90;;;;;;4981507;28;20053;-85
2023/04/12 06:35:04;;;;;;;6.22;2.55;;;9.10;99.90;;;;;;4961462;28;20057;-86
2023/04/12 06:37:29;;;;;;;13.43;3.55;;;9.10;99.90;;;;;;4980893;28;20038;-82
2023/04/12 06:39:55;;;;;;;5.22;3.03;;;9.10;99.90;;;;;;4981185;28;20018;-84
2023/04/12 06:42:21;;;;;;;11.70;3.33;;;9.20;99.90;;;;;;4970570;28;20046;-84
2023/04/12 06:44:46;;;;;;;5.15;3.00;;;9.20;99.90;;;;;;4963530;28;20030;-86
2023/04/12 06:47:12;;;;;;;8.95;3.60;;;9.10;99.90;;;;;;4962980;28;20034;-83
2023/04/12 06:49:37;;;;;;;8.32;3.35;;;9.20;99.90;;;;;;4965364;28;20046;-83
2023/04/12 06:52:03;;;;;;;8.05;2.95;;;9.20;99.90;;;;;;4963785;28;20111;-85
2023/04/12 06:54:29;;;;;;;7.53;3.50;;;9.30;99.90;;;;;;4982395;28;20034;-85
2023/04/12 06:56:56;;;;;;;7.35;3.15;;;9.20;99.90;;;;;;4961998;28;20117;-83
2023/04/12 06:59:21;;;;;;;6.63;3.13;;;9.20;99.90;;;;;;4971358;28;20041;-82
2023/04/12 07:01:47;;;;;;;7.32;3.33;;;9.20;99.90;;;;;;4963524;28;20497;-85
2023/04/12 07:04:13;;;;;;;7.93;3.03;;;9.30;99.90;;;;;;4963669;28;20077;-87
2023/04/12 07:06:38;;;;;;;5.75;2.92;;;9.40;99.90;;;;;;4966294;28;20046;-82
2023/04/12 07:09:04;;;;;;;5.07;2.88;;;9.30;99.90;;;;;;4983271;28;20045;-80
2023/04/12 07:11:32;;;;;;;5.25;3.20;;;9.40;99.90;;;;;;4981332;28;20022;-83
2023/04/12 07:13:58;;;;;;;3.08;2.65;;;9.40;99.90;;;;;;4982580;28;20442;-83
2023/04/12 07:16:24;;;;;;;10.40;3.33;;;9.50;99.90;;;;;;4979782;28;20030;-85
2023/04/12 07:18:50;;;;;;;4.22;3.13;;;9.50;99.90;;;;;;4971527;28;20026;-82
2023/04/12 07:21:16;;;;;;;6.65;3.50;;;9.60;99.90;;;;;;4958756;28;20030;-83
2023/04/12 07:23:43;;;;;;;5.43;3.30;;;9.60;99.90;;;;;;4981319;28;20382;-81
2023/04/12 07:26:11;;;;;;;10.40;3.40;;;9.60;99.90;;;;;;4973474;28;20482;-81
2023/04/12 07:28:37;;;;;;;3.97;3.38;;;9.50;99.90;;;;;;4980469;28;20069;-80
2023/04/12 07:31:06;;;;;;;10.05;3.92;;;9.50;99.90;;;;;;4979494;28;20026;-80
2023/04/12 07:33:34;;;;;;;5.22;3.78;;;9.50;99.90;;;;;;4957825;28;20117;-81
2023/04/12 07:36:00;;;;;;;6.03;4.18;;;9.60;99.90;;;;;;4982946;28;20479;-79
2023/04/12 07:38:26;;;;;;;14.05;4.32;;;9.60;99.90;;;;;;4980901;28;20026;-81
2023/04/12 07:40:53;;;;;;;10.32;4.57;;;9.60;99.90;;;;;;4964195;28;20019;-82
2023/04/12 07:43:18;;;;;;;6.57;4.53;;;9.60;99.90;;;;;;4968645;28;20026;-79
2023/04/12 07:45:44;;;;;;;7.15;4.43;;;9.60;99.90;;;;;;4981207;28;20297;-80
2023/04/12 07:48:11;;;;;;;8.75;5.10;;;9.70;99.90;;;;;;4966009;28;20088;-80
2023/04/12 07:50:37;;;;;;;7.30;4.70;;;9.70;99.90;;;;;;4962044;28;20030;-80
2023/04/12 07:53:21;;;;;;;5.55;4.40;;;9.80;99.90;;;;;;4979507;28;20031;-80
2023/04/12 07:55:47;;;;;;;5.28;3.80;;;9.80;99.90;;;;;;4980787;28;20076;-83
2023/04/12 07:58:14;;;;;;;6.47;4.82;;;9.80;99.90;;;;;;4979421;28;20164;-81
2023/04/12 08:00:40;;;;;;;9.40;4.50;;;9.80;99.90;;;;;;4980696;28;20204;-80
2023/04/12 08:03:08;;;;;;;11.85;4.95;;;9.80;99.90;;;;;;4963771;28;20084;-82
2023/04/12 08:05:36;;;;;;;7.10;4.57;;;9.80;99.90;;;;;;4963011;28;20530;-85
2023/04/12 08:08:02;;;;;;;8.25;4.88;;;9.80;99.90;;;;;;4988706;28;20026;-83
2023/04/12 08:10:29;;;;;;;6.15;4.68;;;9.80;99.90;;;;;;4979711;28;20077;-81
2023/04/12 08:12:55;;;;;;;5.93;4.32;;;9.80;99.90;;;;;;4963208;28;20033;-82
2023/04/12 08:15:20;;;;;;;7.18;4.38;;;10.00;99.90;;;;;;4982337;28;20172;-81
2023/04/12 08:17:46;;;;;;;5.43;4.03;;;9.90;99.90;;;;;;4980390;28;20068;-83
2023/04/12 08:20:14;;;;;;;6.70;4.80;;;9.90;99.90;;;;;;4982704;28;21208;-81
2023/04/12 08:22:44;;;;;;;9.50;6.28;;;9.90;99.90;;;;;;4961600;28;20475;-81
2023/04/12 08:25:12;;;;;;;13.05;6.10;;;10.00;99.90;;;;;;4969189;28;20470;-82
2023/04/12 08:27:42;;;;;;;11.63;8.40;;;10.10;99.90;;;;;;4979267;28;20073;-82
2023/04/12 08:30:09;;;;;;;10.88;7.88;;;10.20;99.90;;;;;;4977656;28;20589;-81
2023/04/12 08:32:36;;;;;;;12.82;8.35;;;10.20;99.90;;;;;;4979199;28;22079;-80
2023/04/12 08:35:05;;;;;;;12.68;8.18;;;10.20;99.90;;;;;;4981984;28;20326;-80
2023/04/12 08:37:31;;;;;;;25.02;12.13;;;10.10;99.90;;;;;;4980073;28;20125;-80
2023/04/12 08:39:59;;;;;;;9.55;7.18;;;10.20;99.90;;;;;;4961737;28;20753;-81
2023/04/12 08:42:25;;;;;;;11.52;7.53;;;10.20;99.90;;;;;;4963680;28;20046;-81
2023/04/12 08:44:53;;;;;;;10.30;7.25;;;10.20;99.90;;;;;;4980304;28;20038;-83
2023/04/12 08:47:20;;;;;;;10.30;7.57;;;10.20;99.90;;;;;;4980466;28;20562;-83
2023/04/12 08:49:46;;;;;;;13.25;8.00;;;10.20;99.90;;;;;;4961740;28;20542;-82
2023/04/12 08:52:12;;;;;;;8.50;5.72;;;10.30;99.90;;;;;;4979537;28;20118;-83
2023/04/12 08:54:40;;;;;;;12.40;6.43;;;10.20;99.90;;;;;;4958181;28;20030;-82
2023/04/12 08:57:07;;;;;;;6.38;5.43;;;10.20;99.90;;;;;;4978996;28;20022;-84
2023/04/12 08:59:38;;;;;;;9.75;6.88;;;10.30;99.90;;;;;;4984434;28;20038;-80
2023/04/12 09:02:04;;;;;;;10.40;6.72;;;10.40;99.90;;;;;;4966225;28;20018;-81
2023/04/12 09:04:30;;;;;;;6.68;5.57;;;10.40;99.90;;;;;;4990347;28;20392;-81
2023/04/12 09:06:56;;;;;;;8.80;5.03;;;10.50;99.90;;;;;;4992742;28;20504;-80
2023/04/12 09:09:41;;;;;;;5.28;4.10;;;10.50;99.90;;;;;;4971459;28;20023;-80
2023/04/12 09:12:08;;;;;;;6.75;4.60;;;10.40;99.90;;;;;;4983335;28;20106;-82
2023/04/12 09:14:34;;;;;;;4.95;3.70;;;10.40;99.90;;;;;;4966481;28;20415;-81
2023/04/12 09:16:59;;;;;;;7.43;3.75;;;10.50;99.90;;;;;;4983893;28;20027;-81
2023/04/12 09:19:35;;;;;;;4.75;4.00;;;10.60;99.90;;;;;;4983066;28;20522;-80
2023/04/12 09:22:01;;;;;;;4.80;4.28;;;10.70;99.90;;;;;;4966319;28;20505;-82
2023/04/12 09:24:28;;;;;;;3.85;3.10;;;10.80;99.90;;;;;;4982782;28;20509;-78
2023/04/12 09:27:04;;;;;;;4.38;3.90;;;10.80;99.90;;;;;;4984940;28;20041;-80
2023/04/12 09:29:31;;;;;;;4.65;3.03;;;10.90;99.90;;;;;;4956408;28;20457;-82
2023/04/12 09:32:02;;;;;;;7.68;3.92;;;10.90;99.90;;;;;;4984646;28;20034;-80
2023/04/12 09:34:32;;;;;;;2.75;2.63;;;11.20;99.90;;;;;;4964913;28;20053;-78
2023/04/12 09:36:58;;;;;;;5.75;2.25;;;11.30;99.90;;;;;;4983142;28;20006;-80
2023/04/12 09:39:34;;;;;;;8.63;1.48;;;11.00;99.90;;;;;;4976725;28;20470;-79
2023/04/12 09:42:07;;;;;;;4.70;1.30;;;10.60;99.90;;;;;;4958047;28;20022;-78
2023/04/12 09:44:33;;;;;;;7.53;1.42;;;10.30;99.90;;;;;;4975170;28;20513;-79
2023/04/12 09:47:01;;;;;;;9.48;1.75;;;10.20;99.90;;;;;;4962428;28;20038;-79
2023/04/12 09:49:43;;;;;;;6.55;1.98;;;10.10;99.90;;;;;;4968213;28;20129;-79
2023/04/12 09:52:10;;;;;;;8.53;2.50;;;10.10;99.90;;;;;;4960798;28;20535;-81
2023/04/12 09:54:47;;;;;;;10.77;2.10;;;10.00;99.90;;;;;;4964727;28;20306;-80
2023/04/12 09:57:20;;;;;;;6.57;1.92;;;10.00;99.90;;;;;;4963524;28;20022;-80
2023/04/12 09:59:49;;;;;;;6.45;1.90;;;10.20;99.90;;;;;;4964488;28;20023;-80
2023/04/12 10:02:17;;;;;;;5.32;1.50;;;10.30;99.90;;;;;;4963323;28;20080;-80
2023/04/12 10:04:43;;;;;;;12.40;2.17;;;10.40;99.90;;;;;;4962397;28;20078;-80
2023/04/12 10:07:10;;;;;;;12.15;2.20;;;10.60;99.90;;;;;;4962211;28;20042;-79
2023/04/12 10:09:40;;;;;;;5.80;1.90;;;10.80;99.90;;;;;;4961908;28;20514;-80
2023/04/12 10:12:07;;;;;;;8.38;1.95;;;11.20;99.90;;;;;;4964949;28;20513;-80
2023/04/12 10:14:33;;;;;;;9.38;2.25;;;11.50;99.90;;;;;;4974134;28;20080;-79
2023/04/12 10:17:00;;;;;;;12.98;1.60;;;11.90;99.90;;;;;;4962943;28;20023;-80
2023/04/12 10:19:28;;;;;;;8.10;1.92;;;12.00;99.90;;;;;;4962387;28;20707;-79
2023/04/12 10:21:55;;;;;;;16.15;1.90;;;12.30;99.90;;;;;;4955416;28;20031;-78
2023/04/12 10:24:25;;;;;;;6.50;1.70;;;12.50;99.90;;;;;;4964145;28;20101;-80
2023/04/12 10:26:59;;;;;;;9.43;1.80;;;12.50;99.90;;;;;;4964288;28;20031;-79
2023/04/12 10:29:26;;;;;;;7.40;1.50;;;12.50;99.90;;;;;;4961017;28;20118;-79
2023/04/12 10:31:57;;;;;;;11.77;2.80;;;12.50;99.90;;;;;;4962551;28;20475;-80
2023/04/12 10:34:30;;;;;;;11.07;1.80;;;12.40;99.90;;;;;;4967624;28;20027;-88
2023/04/12 10:36:59;;;;;;;;;;;12.40;99.90;;;;;;4967810;28;20014;-89
2023/04/12 10:39:37;;;;;;;8.43;1.42;;;12.40;99.90;;;;;;4965841;28;19910;-92
2023/04/12 10:42:20;;;;;;;14.48;2.30;;;12.60;99.90;;;;;;4965926;28;20029;-89
2023/04/12 10:44:46;;;;;;;12.48;2.60;;;12.80;99.90;;;;;;4962980;28;20081;-79
2023/04/12 10:47:12;;;;;;;13.75;2.03;;;13.00;99.90;;;;;;4967433;28;20043;-79
2023/04/12 10:49:38;;;;;;;16.50;2.17;;;12.90;99.90;;;;;;4958738;28;20026;-80
2023/04/12 10:52:10;;;;;;;11.00;1.85;;;12.70;99.90;;;;;;4962332;28;20109;-80
2023/04/12 10:54:36;;;;;;;14.52;2.00;;;12.70;99.90;;;;;;4962545;28;20029;-80
2023/04/12 10:57:03;;;;;;;16.50;2.15;;;12.90;99.90;;;;;;4962604;28;20026;-80
2023/04/12 10:59:50;;;;;;;15.40;2.60;;;13.00;99.90;;;;;;4976415;28;20094;-80
2023/04/12 11:02:16;;;;;;;16.35;2.38;;;13.30;99.90;;;;;;4956476;28;20022;-81
2023/04/12 11:05:04;;;;;;;17.08;2.83;;;13.40;99.90;;;;;;4961881;28;20030;-79
2023/04/12 11:07:43;;;;;;;17.77;2.40;;;13.60;99.90;;;;;;4977280;28;20133;-80
2023/04/12 11:10:17;;;;;;;16.48;2.10;;;14.00;99.90;;;;;;4963517;28;20039;-81
2023/04/12 11:12:55;;;;;;;10.75;1.85;;;14.30;99.90;;;;;;4962354;28;20104;-80
2023/04/12 11:15:25;;;;;;;10.93;2.30;;;14.50;99.90;;;;;;4976034;28;20034;-81
2023/04/12 11:17:55;;;;;;;14.07;2.20;;;14.40;99.90;;;;;;4960322;28;20106;-80
2023/04/12 11:20:24;;;;;;;14.70;2.22;;;14.30;99.90;;;;;;4952722;28;20038;-81
2023/04/12 11:22:52;;;;;;;13.75;2.20;;;14.30;99.90;;;;;;4959535;28;20489;-82
2023/04/12 11:25:18;;;;;;;13.52;2.25;;;14.30;99.90;;;;;;4963159;28;20031;-81
2023/04/12 11:27:50;;;;;;;4.35;1.77;;;14.20;99.90;;;;;;4977268;28;20050;-80
2023/04/12 11:30:16;;;;;;;;;;;14.40;99.90;;;;;;4962592;28;20054;-80
2023/04/12 11:32:44;;;;;;;15.80;2.50;;;14.70;99.90;;;;;;4961831;28;20333;-81
2023/04/12 11:35:10;;;;;;;9.55;1.60;;;14.70;99.90;;;;;;4960379;28;20034;-81
2023/04/12 11:37:37;;;;;;;11.55;2.03;;;14.60;99.90;;;;;;4960333;28;20031;-81
2023/04/12 11:40:06;;;;;;;13.38;2.00;;;14.60;99.90;;;;;;4968235;28;20582;-80
2023/04/12 11:42:32;;;;;;;10.38;2.20;;;14.50;99.90;;;;;;4971537;28;20023;-81
2023/04/12 11:44:58;;;;;;;18.63;2.90;;;14.70;99.90;;;;;;4962516;28;20027;-80
2023/04/12 11:47:24;;;;;;;11.25;2.72;;;14.70;99.90;;;;;;4959810;28;20113;-81
2023/04/12 11:49:52;;;;;;;16.15;2.05;;;14.80;99.90;;;;;;4962552;28;20030;-81
2023/04/12 11:52:18;;;;;;;13.63;2.40;;;15.00;99.90;;;;;;4961934;28;20034;-81
2023/04/12 11:54:55;;;;;;;11.93;2.03;;;15.20;99.90;;;;;;4960140;28;20573;-81
2023/04/12 11:57:21;;;;;;;19.02;2.03;;;15.40;99.90;;;;;;4968730;28;20038;-81
2023/04/12 11:59:47;;;;;;;15.27;2.05;;;15.50;99.90;;;;;;4962875;28;20027;-81
2023/04/12 12:02:16;;;;;;;14.40;2.05;;;15.80;99.90;;;;;;4961141;28;20085;-81
2023/04/12 12:04:46;;;;;;;17.70;2.40;;;16.10;99.90;;;;;;4962339;28;20022;-81
2023/04/12 12:07:13;;;;;;;12.13;1.80;;;16.70;99.90;;;;;;4960837;28;20138;-82
2023/04/12 12:09:40;;;;;;;10.32;2.72;;;17.10;99.90;;;;;;4977068;28;20027;-81
2023/04/12 12:12:07;;;;;;;12.40;1.85;;;17.20;99.90;;;;;;4974244;28;20039;-81
2023/04/12 12:14:37;;;;;;;13.20;2.42;;;17.40;99.90;;;;;;4969708;28;20135;-81
2023/04/12 12:17:15;;;;;;;10.77;1.58;;;17.70;99.90;;;;;;4978448;28;20030;-81
2023/04/12 12:19:44;;;;;;;17.35;2.58;;;18.60;99.90;;;;;;4968462;28;20065;-80
2023/04/12 12:22:17;;;;;;;12.68;2.40;;;19.10;99.90;;;;;;4962534;28;20174;-81
2023/04/12 12:24:59;;;;;;;10.23;1.80;;;18.70;99.90;;;;;;4959085;28;20122;-81
2023/04/12 12:27:36;;;;;;;11.60;2.97;;;18.30;99.90;;;;;;4962887;28;20481;-81
2023/04/12 12:30:03;;;;;;;18.40;2.80;;;18.10;99.90;;;;;;4962685;28;20033;-81
2023/04/12 12:32:36;;;;;;;13.07;2.53;;;17.70;99.90;;;;;;4962359;28;20018;-83
2023/04/12 12:35:06;;;;;;;9.63;2.47;;;17.10;99.90;;;;;;4964613;28;20034;-82
2023/04/12 12:37:32;;;;;;;13.90;2.53;;;16.50;99.90;;;;;;4965002;28;20097;-82
2023/04/12 12:40:12;;;;;;;10.45;2.72;;;16.00;99.90;;;;;;4964091;28;20022;-81
2023/04/12 12:42:58;;;;;;;13.82;2.28;;;15.50;99.90;;;;;;4957367;28;20031;-84
2023/04/12 12:45:26;;;;;;;9.25;2.00;;;15.00;99.90;;;;;;4964639;28;20026;-82
2023/04/12 12:47:58;;;;;;;7.88;2.08;;;14.80;99.90;;;;;;4973375;28;20043;-84
2023/04/12 12:50:28;;;;;;;6.97;1.63;;;14.20;99.90;;;;;;4966950;28;20015;-83
2023/04/12 12:52:55;;;;;;;7.60;1.40;;;13.60;99.90;;;;;;4966696;28;20101;-84
2023/04/12 12:55:22;;;;;;;3.60;1.55;;;12.90;99.90;;;;;;4962283;28;20063;-86